createdAt,value
2022-12-29T00:00:55.392Z,96042.00
2022-12-29T00:05:00.677Z,96036.00
2022-12-29T00:09:03.843Z,96040.00
2022-12-29T00:13:58.279Z,96050.00
2022-12-29T00:18:02.715Z,96042.00
2022-12-29T00:22:23.057Z,96034.00
2022-12-29T00:26:44.524Z,96024.00
2022-12-29T00:31:27.483Z,96017.00
2022-12-29T00:35:34.452Z,96009.00
2022-12-29T00:39:55.103Z,96013.00
2022-12-29T00:44:08.549Z,96027.00
2022-12-29T00:48:58.954Z,96021.00
2022-12-29T00:53:03.347Z,96008.00
2022-12-29T00:57:13.628Z,96007.00
2022-12-29T01:01:18.510Z,96001.00
2022-12-29T01:05:21.833Z,96007.00
2022-12-29T01:09:44.933Z,96006.00
2022-12-29T01:14:00.030Z,96005.00
2022-12-29T01:18:03.086Z,96009.00
2022-12-29T01:22:06.275Z,96017.00
2022-12-29T01:26:43.892Z,96007.00
2022-12-29T01:30:49.681Z,95999.00
2022-12-29T01:34:53.116Z,95997.00
2022-12-29T01:39:27.330Z,95997.00
2022-12-29T01:43:45.769Z,95986.00
2022-12-29T01:47:52.513Z,95988.00
2022-12-29T01:51:59.630Z,95988.00
2022-12-29T01:56:10.554Z,95979.00
2022-12-29T02:00:41.940Z,95984.00
2022-12-29T02:04:46.131Z,95981.00
2022-12-29T02:08:51.584Z,95973.00
2022-12-29T02:12:56.129Z,95954.00
2022-12-29T02:17:12.511Z,95959.00
2022-12-29T02:21:41.443Z,95953.00
2022-12-29T02:26:00.466Z,95947.00
2022-12-29T02:30:40.656Z,95958.00
2022-12-29T02:34:51.077Z,95964.00
2022-12-29T02:39:04.064Z,95965.00
2022-12-29T02:43:22.163Z,95935.00
2022-12-29T02:47:53.829Z,95935.00
2022-12-29T02:52:04.701Z,95931.00
2022-12-29T02:56:08.176Z,95924.00
2022-12-29T03:00:18.192Z,95937.00
2022-12-29T03:04:37.435Z,95952.00
2022-12-29T03:08:51.659Z,95934.00
2022-12-29T03:13:22.216Z,95929.00
2022-12-29T03:17:36.929Z,95934.00
2022-12-29T03:22:01.829Z,95931.00
2022-12-29T03:26:10.639Z,95924.00
2022-12-29T03:30:15.083Z,95922.00
2022-12-29T03:34:23.713Z,95909.00
2022-12-29T03:38:35.767Z,95911.00
2022-12-29T03:42:43.384Z,95914.00
2022-12-29T03:46:49.000Z,95907.00
2022-12-29T03:50:59.486Z,95911.00
2022-12-29T03:55:04.176Z,95906.00
2022-12-29T03:59:08.352Z,95903.00
2022-12-29T04:03:11.853Z,95902.00
2022-12-29T04:07:15.024Z,95901.00
2022-12-29T04:11:19.907Z,95905.00
2022-12-29T04:15:27.518Z,95904.00
2022-12-29T04:19:30.880Z,95913.00
2022-12-29T04:23:36.036Z,95907.00
2022-12-29T04:27:45.842Z,95908.00
2022-12-29T04:31:48.960Z,95911.00
2022-12-29T04:35:53.298Z,95909.00
2022-12-29T04:39:56.345Z,95912.00
2022-12-29T04:44:03.352Z,95916.00
2022-12-29T04:48:07.446Z,95912.00
2022-12-29T04:52:12.885Z,95918.00
2022-12-29T04:56:16.626Z,95917.00
2022-12-29T05:00:24.405Z,95918.00
2022-12-29T05:04:29.387Z,95919.00
2022-12-29T05:08:32.712Z,95916.00
2022-12-29T05:12:39.547Z,95911.00
2022-12-29T05:16:44.018Z,95917.00
2022-12-29T05:20:48.000Z,95919.00
2022-12-29T05:24:57.297Z,95915.00
2022-12-29T05:29:03.229Z,95907.00
2022-12-29T05:33:08.665Z,95907.00
2022-12-29T05:37:18.268Z,95912.00
2022-12-29T05:41:24.767Z,95912.00
2022-12-29T05:45:27.834Z,95908.00
2022-12-29T05:49:37.149Z,95916.00
2022-12-29T05:53:42.009Z,95902.00
2022-12-29T05:57:45.199Z,95905.00
2022-12-29T06:01:50.525Z,95905.00
2022-12-29T06:05:57.433Z,95910.00
2022-12-29T06:10:00.779Z,95899.00
2022-12-29T06:14:04.109Z,95912.00
2022-12-29T06:18:07.286Z,95915.00
2022-12-29T06:22:13.292Z,95910.00
2022-12-29T06:26:19.144Z,95911.00
2022-12-29T06:30:22.542Z,95907.00
2022-12-29T06:34:25.824Z,95916.00
2022-12-29T06:38:32.132Z,95917.00
2022-12-29T06:42:35.468Z,95924.00
2022-12-29T06:46:40.508Z,95925.00
2022-12-29T06:50:43.787Z,95928.00
2022-12-29T06:54:50.249Z,95927.00
2022-12-29T06:58:56.437Z,95927.00
2022-12-29T07:03:00.500Z,95927.00
2022-12-29T07:07:03.937Z,95926.00
2022-12-29T07:11:08.548Z,95922.00
2022-12-29T07:15:13.072Z,95924.00
2022-12-29T07:19:19.001Z,95920.00
2022-12-29T07:23:22.006Z,95927.00
2022-12-29T07:27:26.469Z,95917.00
2022-12-29T07:31:30.759Z,95921.00
2022-12-29T07:35:35.404Z,95905.00
2022-12-29T07:39:47.993Z,95903.00
2022-12-29T07:43:52.501Z,95907.00
2022-12-29T07:47:55.881Z,95914.00
2022-12-29T07:51:59.374Z,95917.00
2022-12-29T07:56:02.442Z,95911.00
2022-12-29T08:00:10.983Z,95914.00
2022-12-29T08:04:14.332Z,95926.00
2022-12-29T08:08:22.546Z,95928.00
2022-12-29T08:13:23.599Z,95938.00
2022-12-29T08:18:15.982Z,95942.00
2022-12-29T08:22:48.211Z,95944.00
2022-12-29T08:27:22.184Z,95957.00
2022-12-29T08:32:07.978Z,95960.00
2022-12-29T08:36:35.682Z,95954.00
2022-12-29T08:40:40.424Z,95958.00
2022-12-29T08:44:43.836Z,95959.00
2022-12-29T08:48:54.310Z,95959.00
2022-12-29T08:53:27.540Z,95964.00
2022-12-29T08:58:06.608Z,95966.00
2022-12-29T09:02:37.510Z,95970.00
2022-12-29T09:12:31.522Z,95973.00
2022-12-29T09:16:40.415Z,95973.00
2022-12-29T09:20:43.563Z,95971.00
2022-12-29T09:25:20.987Z,95961.00
2022-12-29T09:29:24.416Z,95959.00
2022-12-29T09:33:33.664Z,95954.00
2022-12-29T09:38:04.902Z,95955.00
2022-12-29T09:42:14.067Z,95957.00
2022-12-29T09:46:48.598Z,95961.00
2022-12-29T09:51:24.183Z,95954.00
2022-12-29T09:55:58.128Z,95945.00
2022-12-29T10:00:06.677Z,95937.00
2022-12-29T10:04:39.654Z,95931.00
2022-12-29T10:09:37.914Z,95937.00
2022-12-29T10:14:22.609Z,95931.00
2022-12-29T10:19:11.708Z,95939.00
2022-12-29T10:23:38.352Z,95925.00
2022-12-29T10:28:19.618Z,95912.00
2022-12-29T10:32:35.157Z,95913.00
2022-12-29T10:37:06.596Z,95909.00
2022-12-29T10:41:43.239Z,95901.00
2022-12-29T10:46:22.440Z,95902.00
2022-12-29T10:51:01.958Z,95892.00
2022-12-29T10:55:32.454Z,95892.00
2022-12-29T10:59:40.497Z,95890.00
2022-12-29T11:04:24.675Z,95887.00
2022-12-29T11:09:28.815Z,95881.00
2022-12-29T11:13:52.573Z,95889.00
2022-12-29T11:18:25.481Z,95885.00
2022-12-29T11:22:59.456Z,95890.00
2022-12-29T11:27:19.008Z,95879.00
2022-12-29T11:31:48.727Z,95875.00
2022-12-29T11:35:51.877Z,95881.00
2022-12-29T11:40:32.097Z,95872.00
2022-12-29T11:44:40.632Z,95863.00
2022-12-29T11:48:45.804Z,95874.00
2022-12-29T11:53:19.797Z,95868.00
2022-12-29T11:57:57.873Z,95868.00
2022-12-29T12:02:48.208Z,95861.00
2022-12-29T12:07:13.644Z,95865.00
2022-12-29T12:11:38.041Z,95865.00
2022-12-29T12:15:50.153Z,95855.00
2022-12-29T12:20:23.143Z,95860.00
2022-12-29T12:24:55.964Z,95849.00
2022-12-29T12:29:30.816Z,95847.00
2022-12-29T12:34:04.857Z,95838.00
2022-12-29T12:38:43.808Z,95838.00
2022-12-29T12:43:35.395Z,95840.00
2022-12-29T12:48:13.663Z,95832.00
2022-12-29T12:52:28.507Z,95835.00
2022-12-29T12:56:49.888Z,95828.00
2022-12-29T13:01:07.561Z,95830.00
2022-12-29T13:05:40.572Z,95837.00
2022-12-29T13:09:59.057Z,95834.00
2022-12-29T13:14:27.774Z,95836.00
2022-12-29T13:19:01.163Z,95815.00
2022-12-29T13:23:43.427Z,95830.00
2022-12-29T13:28:15.965Z,95835.00
2022-12-29T13:32:50.155Z,95824.00
2022-12-29T13:36:58.332Z,95826.00
2022-12-29T13:41:07.437Z,95818.00
2022-12-29T13:46:00.159Z,95826.00
2022-12-29T13:50:06.040Z,95815.00
2022-12-29T13:54:20.318Z,95835.00
2022-12-29T13:58:54.589Z,95832.00
2022-12-29T14:03:35.685Z,95828.00
2022-12-29T14:07:40.714Z,95832.00
2022-12-29T14:12:20.638Z,95828.00
2022-12-29T14:17:14.932Z,95826.00
2022-12-29T14:21:28.884Z,95839.00
2022-12-29T14:26:02.212Z,95834.00
2022-12-29T14:30:08.359Z,95846.00
2022-12-29T14:34:51.927Z,95852.00
2022-12-29T14:39:31.587Z,95861.00
2022-12-29T14:43:58.520Z,95862.00
2022-12-29T14:48:35.531Z,95863.00
2022-12-29T14:53:33.507Z,95868.00
2022-12-29T14:57:40.046Z,95875.00
2022-12-29T15:02:17.615Z,95862.00
2022-12-29T15:06:28.895Z,95873.00
2022-12-29T15:10:40.723Z,95877.00
2022-12-29T15:15:19.715Z,95873.00
2022-12-29T15:19:25.990Z,95873.00
2022-12-29T15:23:32.462Z,95880.00
2022-12-29T15:28:08.621Z,95881.00
2022-12-29T15:32:27.758Z,95880.00
2022-12-29T15:36:52.539Z,95875.00
2022-12-29T15:40:56.559Z,95883.00
2022-12-29T15:45:34.259Z,95885.00
2022-12-29T15:49:40.356Z,95891.00
2022-12-29T15:54:16.467Z,95880.00
2022-12-29T15:58:25.403Z,95884.00
2022-12-29T16:02:58.800Z,95873.00
2022-12-29T16:07:04.163Z,95882.00
2022-12-29T16:11:22.824Z,95882.00
2022-12-29T16:15:48.095Z,95878.00
2022-12-29T16:20:30.555Z,95884.00
2022-12-29T16:24:34.994Z,95884.00
2022-12-29T16:29:10.420Z,95887.00
2022-12-29T16:33:49.618Z,95888.00
2022-12-29T16:38:23.632Z,95874.00
2022-12-29T16:42:37.387Z,95875.00
2022-12-29T16:47:31.239Z,95870.00
2022-12-29T16:52:01.803Z,95876.00
2022-12-29T16:56:46.838Z,95877.00
2022-12-29T17:01:20.485Z,95878.00
2022-12-29T17:05:54.173Z,95895.00
2022-12-29T17:10:48.021Z,95895.00
2022-12-29T17:15:46.601Z,95888.00
2022-12-29T17:20:25.793Z,95896.00
2022-12-29T17:25:02.735Z,95899.00
2022-12-29T17:29:40.586Z,95901.00
2022-12-29T17:34:14.256Z,95890.00
2022-12-29T17:38:56.585Z,95887.00
2022-12-29T17:43:34.606Z,95898.00
2022-12-29T17:48:06.963Z,95887.00
2022-12-29T17:52:40.846Z,95891.00
2022-12-29T17:57:20.421Z,95890.00
2022-12-29T18:02:09.582Z,95894.00
2022-12-29T18:06:15.165Z,95883.00
2022-12-29T18:10:31.614Z,95879.00
2022-12-29T18:15:07.380Z,95885.00
2022-12-29T18:19:10.528Z,95879.00
2022-12-29T18:23:21.005Z,95882.00
2022-12-29T18:27:49.065Z,95876.00
2022-12-29T18:32:25.628Z,95888.00
2022-12-29T18:37:00.144Z,95896.00
2022-12-29T18:41:34.549Z,95903.00
2022-12-29T18:45:37.739Z,95913.00
2022-12-29T18:50:19.504Z,95925.00
2022-12-29T18:54:50.267Z,95932.00
2022-12-29T18:59:29.212Z,95940.00
2022-12-29T19:04:07.359Z,95972.00
2022-12-29T19:08:16.487Z,95970.00
2022-12-29T19:12:25.031Z,95964.00
2022-12-29T19:16:56.139Z,95955.00
2022-12-29T19:21:32.949Z,95976.00
2022-12-29T19:26:12.594Z,95961.00
2022-12-29T19:30:52.165Z,95964.00
2022-12-29T19:34:58.608Z,95958.00
2022-12-29T19:39:03.772Z,95966.00
2022-12-29T19:43:38.527Z,95971.00
2022-12-29T19:48:17.691Z,95961.00
2022-12-29T19:53:01.867Z,95964.00
2022-12-29T19:57:35.842Z,95961.00
2022-12-29T20:02:14.203Z,95964.00
2022-12-29T20:06:46.569Z,95964.00
2022-12-29T20:11:20.835Z,95960.00
2022-12-29T20:16:03.980Z,95970.00
2022-12-29T20:20:40.704Z,95962.00
2022-12-29T20:24:50.118Z,95983.00
2022-12-29T20:29:01.309Z,95976.00
2022-12-29T20:33:35.092Z,95978.00
2022-12-29T20:38:08.919Z,95981.00
2022-12-29T20:42:47.611Z,95972.00
2022-12-29T20:47:24.039Z,95964.00
2022-12-29T20:52:07.358Z,95977.00
2022-12-29T20:56:35.260Z,95963.00
2022-12-29T21:01:15.768Z,95965.00
2022-12-29T21:05:53.712Z,95979.00
2022-12-29T21:09:58.291Z,95974.00
2022-12-29T21:14:38.507Z,95963.00
2022-12-29T21:18:47.682Z,95961.00
2022-12-29T21:22:51.066Z,95963.00
2022-12-29T21:26:54.111Z,95964.00
2022-12-29T21:31:40.771Z,95976.00
2022-12-29T21:35:48.385Z,95963.00
2022-12-29T21:39:51.624Z,95979.00
2022-12-29T21:44:46.231Z,95988.00
2022-12-29T21:49:07.819Z,95964.00
2022-12-29T21:53:44.377Z,95975.00
2022-12-29T21:58:04.631Z,95970.00
2022-12-29T22:02:37.315Z,95975.00
2022-12-29T22:07:00.532Z,95982.00
2022-12-29T22:11:25.834Z,95989.00
2022-12-29T22:15:30.992Z,95995.00
2022-12-29T22:19:37.314Z,96000.00
2022-12-29T22:24:11.024Z,96000.00
2022-12-29T22:28:15.722Z,96008.00
2022-12-29T22:32:22.270Z,96018.00
2022-12-29T22:36:28.615Z,96020.00
2022-12-29T22:41:03.001Z,96018.00
2022-12-29T22:45:10.872Z,96031.00
2022-12-29T22:49:13.884Z,96034.00
2022-12-29T22:53:18.655Z,96032.00
2022-12-29T22:57:57.679Z,96031.00
2022-12-29T23:02:02.297Z,96042.00
2022-12-29T23:06:09.474Z,96052.00
2022-12-29T23:10:12.538Z,96059.00
2022-12-29T23:15:09.913Z,96067.00
2022-12-29T23:19:15.643Z,96073.00
2022-12-29T23:23:48.896Z,96086.00
2022-12-29T23:27:57.569Z,96089.00
2022-12-29T23:32:05.169Z,96087.00
2022-12-29T23:36:10.184Z,96092.00
2022-12-29T23:40:18.179Z,96098.00
2022-12-29T23:44:24.392Z,96108.00
2022-12-29T23:48:27.680Z,96125.00
2022-12-29T23:53:06.168Z,96137.00
2022-12-29T23:57:13.954Z,96136.00
